Terminal Aerodrome Forecast
Issued by NWS

Home | Current Version | Previous Version | Text Only | Print | Product List | Glossary On
Versions: 1 2 3 4 5 6 7 8 9 10 11 12 13 14
000
FTUS44 KEPZ 291859 AAA
TAFLRU
TAF AMD
KLRU 291859Z 2919/3018 23010G16KT P6SM SCT120 SCT200
     FM300200 25007KT P6SM FEW120 SCT200
     FM301200 23008KT P6SM FEW080=

USA.gov is the U.S. government's official web portal to all federal, state and local government web resources and services.